Time;durP1;ratioP1;P1;durP2;ratioP2;P2;SDS_P1;SDS_P2;PMS_P1;PMS_P2;Temp;Humidity;BMP_temperature;BMP_pressure;BME280_temperature;BME280_humidity;BME280_pressure;Samples;Min_cycle;Max_cycle;Signal;HPM_P1;HPM_P2
2022/07/16 00:01:23;;;;;;;5.00;2.40;;;14.70;99.90;;;;;;5115397;28;20196;-69
2022/07/16 00:03:57;;;;;;;2.92;2.40;;;14.70;99.90;;;;;;5115718;28;20160;-69
2022/07/16 00:06:24;;;;;;;3.97;2.33;;;14.70;99.90;;;;;;5115861;28;20188;-69
2022/07/16 00:08:51;;;;;;;4.07;2.22;;;14.60;99.90;;;;;;5115279;28;20172;-69
2022/07/16 00:11:17;;;;;;;5.03;2.55;;;14.60;99.90;;;;;;5115113;28;20570;-69
2022/07/16 00:13:44;;;;;;;3.78;2.50;;;14.60;99.90;;;;;;5115129;28;20192;-69
2022/07/16 00:16:09;;;;;;;3.47;2.33;;;14.50;99.90;;;;;;5115175;28;20196;-69
2022/07/16 00:21:22;;;;;;;2.70;2.42;;;14.50;99.90;;;;;;5115279;28;20228;-69
2022/07/16 00:23:48;;;;;;;3.05;2.50;;;14.50;99.90;;;;;;5113691;28;20176;-69
2022/07/16 00:26:13;;;;;;;4.82;2.22;;;14.40;99.90;;;;;;5114855;28;20696;-69
2022/07/16 00:28:39;;;;;;;4.30;2.45;;;14.50;99.90;;;;;;5115093;28;20540;-69
2022/07/16 00:31:05;;;;;;;5.22;2.95;;;14.50;99.90;;;;;;5114865;28;20208;-69
2022/07/16 00:33:32;;;;;;;4.40;2.60;;;14.50;99.90;;;;;;5114745;28;20164;-69
2022/07/16 00:35:58;;;;;;;3.15;2.58;;;14.50;99.90;;;;;;5115072;28;20199;-69
2022/07/16 00:38:24;;;;;;;2.80;2.60;;;14.50;99.90;;;;;;5114709;28;20634;-69
2022/07/16 00:40:50;;;;;;;3.58;2.60;;;14.40;99.90;;;;;;5114109;28;20181;-70
2022/07/16 00:43:16;;;;;;;4.13;2.83;;;14.40;99.90;;;;;;5114649;28;20173;-69
2022/07/16 00:45:42;;;;;;;4.20;2.60;;;14.40;99.90;;;;;;5114837;28;20169;-69
2022/07/16 00:48:08;;;;;;;5.72;3.08;;;14.50;99.90;;;;;;5115049;27;20168;-69
2022/07/16 00:50:36;;;;;;;3.63;2.85;;;14.50;99.90;;;;;;5113131;28;20673;-69
2022/07/16 00:53:03;;;;;;;6.43;2.70;;;14.50;99.90;;;;;;5114394;28;20288;-69
2022/07/16 00:55:30;;;;;;;7.55;3.50;;;14.50;99.90;;;;;;5114414;28;20168;-69
2022/07/16 00:57:57;;;;;;;4.30;2.95;;;14.50;99.90;;;;;;5114663;28;20165;-69
2022/07/16 01:00:23;;;;;;;3.95;3.08;;;14.50;99.90;;;;;;5114482;28;20209;-69
2022/07/16 01:02:49;;;;;;;3.83;3.05;;;14.60;99.90;;;;;;5114117;28;20749;-69
2022/07/16 01:05:15;;;;;;;5.50;3.10;;;14.60;99.90;;;;;;5114157;28;20188;-69
2022/07/16 01:07:43;;;;;;;4.43;3.00;;;14.70;99.90;;;;;;5112980;28;20173;-69
2022/07/16 01:10:09;;;;;;;6.18;2.90;;;14.70;99.90;;;;;;5114348;28;20562;-69
2022/07/16 01:12:36;;;;;;;5.40;3.00;;;14.80;99.90;;;;;;5114378;28;20242;-69
2022/07/16 01:15:03;;;;;;;4.70;2.80;;;14.90;99.90;;;;;;5112978;28;20285;-69
2022/07/16 01:17:29;;;;;;;5.40;3.20;;;14.90;99.90;;;;;;5114017;28;20196;-69
2022/07/16 01:19:55;;;;;;;3.70;2.90;;;14.90;99.90;;;;;;5114050;28;20230;-69
2022/07/16 01:22:23;;;;;;;5.93;2.92;;;14.90;99.90;;;;;;5114221;28;20208;-69
2022/07/16 01:24:50;;;;;;;5.03;3.10;;;14.90;99.90;;;;;;5113012;28;20229;-69
2022/07/16 01:27:16;;;;;;;4.70;3.05;;;14.80;99.90;;;;;;5113964;28;20181;-69
2022/07/16 01:29:42;;;;;;;4.53;2.95;;;14.80;99.90;;;;;;5113824;28;20180;-69
2022/07/16 01:32:08;;;;;;;6.50;3.13;;;14.80;99.90;;;;;;5113757;28;20705;-69
2022/07/16 01:34:34;;;;;;;3.10;2.80;;;14.80;99.90;;;;;;5112514;28;20184;-69
2022/07/16 01:37:03;;;;;;;5.78;3.13;;;14.80;99.90;;;;;;5114128;28;20161;-69
2022/07/16 01:39:31;;;;;;;3.28;2.50;;;14.80;99.90;;;;;;5112636;28;20172;-69
2022/07/16 01:41:59;;;;;;;4.68;3.25;;;14.80;99.90;;;;;;5113977;28;20176;-69
2022/07/16 01:44:27;;;;;;;6.30;3.33;;;14.70;99.90;;;;;;5112585;28;20263;-69
2022/07/16 01:46:55;;;;;;;5.57;3.00;;;14.70;99.90;;;;;;5113889;28;20181;-69
2022/07/16 01:49:22;;;;;;;4.53;3.05;;;14.60;99.90;;;;;;5113553;28;20180;-69
2022/07/16 01:51:48;;;;;;;3.10;2.80;;;14.60;99.90;;;;;;5113869;28;20192;-69
2022/07/16 01:54:15;;;;;;;7.97;3.53;;;14.60;99.90;;;;;;5117740;28;20203;-69
2022/07/16 01:56:40;;;;;;;3.38;2.75;;;14.60;99.90;;;;;;5116472;28;20181;-69
2022/07/16 01:59:06;;;;;;;4.47;3.17;;;14.50;99.90;;;;;;5117887;28;20249;-69
2022/07/16 02:01:32;;;;;;;7.90;3.03;;;14.50;99.90;;;;;;5118018;28;20192;-69
2022/07/16 02:03:58;;;;;;;8.57;3.70;;;14.50;99.90;;;;;;5117881;28;20172;-69
2022/07/16 02:06:24;;;;;;;9.45;3.42;;;14.50;99.90;;;;;;5117998;28;20183;-69
2022/07/16 02:08:50;;;;;;;8.20;3.63;;;14.50;99.90;;;;;;5117822;28;20544;-69
2022/07/16 02:11:16;;;;;;;6.35;3.35;;;14.50;99.90;;;;;;5116085;28;20200;-69
2022/07/16 02:13:42;;;;;;;5.68;2.97;;;14.50;99.90;;;;;;5117422;28;20177;-69
2022/07/16 02:16:09;;;;;;;6.55;3.33;;;14.50;99.90;;;;;;5117460;28;20246;-69
2022/07/16 02:18:35;;;;;;;5.28;3.35;;;14.60;99.90;;;;;;5117356;28;20184;-69
2022/07/16 02:21:02;;;;;;;4.28;3.13;;;14.60;99.90;;;;;;5116108;28;20198;-69
2022/07/16 02:23:28;;;;;;;4.18;3.13;;;14.70;99.90;;;;;;5117584;28;20528;-69
2022/07/16 02:25:55;;;;;;;6.18;3.03;;;14.70;99.90;;;;;;5117183;28;20176;-69
2022/07/16 02:28:21;;;;;;;6.05;3.20;;;14.70;99.90;;;;;;5117284;28;20168;-69
2022/07/16 02:30:48;;;;;;;7.43;3.20;;;14.70;99.90;;;;;;5116986;27;20197;-69
2022/07/16 02:33:19;;;;;;;3.30;3.00;;;14.70;99.90;;;;;;5117581;28;20200;-69
2022/07/16 02:35:45;;;;;;;4.97;3.45;;;14.70;99.90;;;;;;5117129;28;20168;-69
2022/07/16 02:38:12;;;;;;;6.55;3.50;;;14.70;99.90;;;;;;5115687;28;20173;-69
2022/07/16 02:40:39;;;;;;;5.28;3.70;;;14.70;99.90;;;;;;5116825;28;20188;-69
2022/07/16 02:43:06;;;;;;;6.45;3.35;;;14.70;99.90;;;;;;5115602;28;20228;-69
2022/07/16 02:45:34;;;;;;;5.45;3.50;;;14.70;99.90;;;;;;5116981;28;20180;-69
2022/07/16 02:48:01;;;;;;;5.68;3.53;;;14.60;99.90;;;;;;5117145;28;20176;-69
2022/07/16 02:50:27;;;;;;;3.65;3.10;;;14.60;99.90;;;;;;5116489;28;20204;-69
2022/07/16 02:52:53;;;;;;;7.55;3.55;;;14.60;99.90;;;;;;5116521;28;20568;-69
2022/07/16 02:55:19;;;;;;;6.45;3.38;;;14.60;99.90;;;;;;5117084;28;20153;-69
2022/07/16 02:57:45;;;;;;;8.30;4.10;;;14.60;99.90;;;;;;5116937;28;20275;-69
2022/07/16 03:00:13;;;;;;;6.63;3.50;;;14.60;99.90;;;;;;5116832;28;20704;-71
2022/07/16 03:02:40;;;;;;;4.15;3.45;;;14.60;99.90;;;;;;5115261;28;20200;-69
2022/07/16 03:05:07;;;;;;;4.88;3.17;;;14.60;99.90;;;;;;5116273;28;20177;-69
2022/07/16 03:07:33;;;;;;;4.50;3.30;;;14.60;99.90;;;;;;5116454;28;20173;-69
2022/07/16 03:09:58;;;;;;;6.00;3.30;;;14.50;99.90;;;;;;5116442;28;20257;-69
2022/07/16 03:12:24;;;;;;;5.57;3.20;;;14.50;99.90;;;;;;5115031;28;20549;-69
2022/07/16 03:14:50;;;;;;;4.25;3.53;;;14.50;99.90;;;;;;5116319;28;20573;-69
2022/07/16 03:17:16;;;;;;;5.68;3.67;;;14.50;99.90;;;;;;5115055;28;20653;-69
2022/07/16 03:19:42;;;;;;;6.20;3.35;;;14.50;99.90;;;;;;5116058;28;20189;-69
2022/07/16 03:22:08;;;;;;;7.45;3.70;;;14.50;99.90;;;;;;5116149;28;20697;-69
2022/07/16 03:24:34;;;;;;;6.65;3.63;;;14.50;99.90;;;;;;5114801;28;20211;-69
2022/07/16 03:27:00;;;;;;;7.07;3.80;;;14.50;99.90;;;;;;5116091;28;20168;-69
2022/07/16 03:29:26;;;;;;;3.85;3.40;;;14.50;99.90;;;;;;5116788;28;20239;-69
2022/07/16 03:31:51;;;;;;;5.55;3.58;;;14.50;99.90;;;;;;5116330;28;20588;-69
2022/07/16 03:34:17;;;;;;;5.07;3.75;;;14.50;99.90;;;;;;5115715;28;20192;-69
2022/07/16 03:36:43;;;;;;;5.15;3.92;;;14.50;99.90;;;;;;5116465;28;20165;-69
2022/07/16 03:39:08;;;;;;;5.93;3.80;;;14.50;99.90;;;;;;5115918;28;20172;-69
2022/07/16 03:41:36;;;;;;;8.60;3.67;;;14.60;99.90;;;;;;5116094;28;20196;-69
2022/07/16 03:44:04;;;;;;;4.88;3.75;;;14.60;99.90;;;;;;5115812;28;20176;-69
2022/07/16 03:46:31;;;;;;;5.30;3.35;;;14.50;99.90;;;;;;5114491;28;20180;-69
2022/07/16 03:48:57;;;;;;;7.13;3.88;;;14.60;99.90;;;;;;5114251;28;20275;-70
2022/07/16 03:51:24;;;;;;;6.47;3.50;;;14.60;99.90;;;;;;5114390;28;20211;-69
2022/07/16 03:53:50;;;;;;;7.43;3.75;;;14.60;99.90;;;;;;5116060;27;20175;-68
2022/07/16 03:56:16;;;;;;;5.03;3.50;;;14.60;99.90;;;;;;5114393;28;20172;-68
2022/07/16 03:58:42;;;;;;;4.78;3.38;;;14.60;99.90;;;;;;5115357;27;20183;-68
2022/07/16 04:01:08;;;;;;;4.95;3.60;;;14.60;99.90;;;;;;5115426;28;20275;-68
2022/07/16 04:03:34;;;;;;;5.20;3.83;;;14.60;99.90;;;;;;5115686;28;20174;-68
2022/07/16 04:06:00;;;;;;;5.93;3.80;;;14.70;99.90;;;;;;5115179;27;20163;-68
2022/07/16 04:08:26;;;;;;;7.68;3.97;;;14.70;99.90;;;;;;5115420;28;20168;-68
2022/07/16 04:10:52;;;;;;;8.68;3.72;;;14.70;99.90;;;;;;5115246;28;20192;-68
2022/07/16 04:13:18;;;;;;;6.53;4.18;;;14.70;99.90;;;;;;5113856;28;20247;-68
2022/07/16 04:15:44;;;;;;;5.95;3.10;;;14.70;99.90;;;;;;5114350;28;20173;-68
2022/07/16 04:18:10;;;;;;;5.88;3.80;;;14.70;99.90;;;;;;5113917;28;20216;-68
2022/07/16 04:20:36;;;;;;;6.78;3.35;;;14.70;99.90;;;;;;5114646;28;20665;-68
2022/07/16 04:23:02;;;;;;;5.70;4.03;;;14.70;99.90;;;;;;5114074;28;20187;-68
2022/07/16 04:25:28;;;;;;;6.65;3.40;;;14.70;99.90;;;;;;5115387;28;20180;-68
2022/07/16 04:27:54;;;;;;;5.72;3.90;;;14.80;99.90;;;;;;5115277;28;20540;-69
2022/07/16 04:30:20;;;;;;;7.07;3.92;;;14.80;99.90;;;;;;5115561;28;20200;-68
2022/07/16 04:32:45;;;;;;;6.70;3.85;;;14.80;99.90;;;;;;5114780;28;20207;-68
2022/07/16 04:35:12;;;;;;;7.78;4.28;;;14.80;99.90;;;;;;5113594;28;20172;-69
2022/07/16 04:37:39;;;;;;;7.53;4.20;;;14.80;99.90;;;;;;5114701;28;20165;-68
2022/07/16 04:40:05;;;;;;;6.32;3.75;;;14.90;99.90;;;;;;5113534;28;20195;-68
2022/07/16 04:42:31;;;;;;;5.30;3.95;;;14.90;99.90;;;;;;5113542;28;20176;-68
2022/07/16 04:44:57;;;;;;;7.32;3.80;;;14.90;99.90;;;;;;5114547;28;20540;-68
2022/07/16 04:47:23;;;;;;;7.07;4.47;;;15.00;99.90;;;;;;5114583;28;20168;-68
2022/07/16 04:49:49;;;;;;;6.20;4.05;;;15.00;99.90;;;;;;5114114;28;20241;-68
2022/07/16 04:52:15;;;;;;;6.20;3.80;;;15.00;99.90;;;;;;5114999;28;20196;-68
2022/07/16 04:54:40;;;;;;;6.03;4.30;;;15.00;99.90;;;;;;5114422;28;20572;-68
2022/07/16 04:57:06;;;;;;;5.75;4.07;;;15.00;99.90;;;;;;5113019;28;20172;-68
2022/07/16 04:59:32;;;;;;;6.18;4.10;;;15.00;99.90;;;;;;5114356;28;20529;-69
2022/07/16 05:02:56;;;;;;;8.27;3.72;;;15.10;99.90;;;;;;5114858;28;20184;-68
2022/07/16 05:04:43;;;;;;;5.03;3.78;;;15.10;99.90;;;;;;5113765;28;20177;-68
2022/07/16 05:07:09;;;;;;;7.18;4.05;;;15.20;99.90;;;;;;5114525;28;20175;-68
2022/07/16 05:09:35;;;;;;;10.55;4.10;;;15.20;99.90;;;;;;5114097;28;20169;-68
2022/07/16 05:12:01;;;;;;;5.60;3.97;;;15.20;99.90;;;;;;5114129;28;20223;-69
2022/07/16 05:14:26;;;;;;;8.05;4.25;;;15.30;99.90;;;;;;5114192;28;20244;-68
2022/07/16 05:16:52;;;;;;;7.53;3.67;;;15.30;99.90;;;;;;5114443;28;20528;-68
2022/07/16 05:19:18;;;;;;;4.60;3.35;;;15.40;99.90;;;;;;5114055;28;20200;-69
2022/07/16 05:21:43;;;;;;;9.57;3.88;;;15.40;99.90;;;;;;5114018;28;20188;-68
2022/07/16 05:24:09;;;;;;;6.50;4.13;;;15.50;99.90;;;;;;5114505;28;20184;-68
2022/07/16 05:26:35;;;;;;;6.35;4.05;;;15.60;99.90;;;;;;5115553;28;20533;-68
2022/07/16 05:29:01;;;;;;;6.80;3.90;;;15.70;99.90;;;;;;5116873;28;20781;-68
2022/07/16 05:31:26;;;;;;;9.57;4.00;;;15.70;99.90;;;;;;5118206;28;20207;-66
2022/07/16 05:33:52;;;;;;;5.80;3.67;;;15.80;99.90;;;;;;5118286;28;20172;-67
2022/07/16 05:36:18;;;;;;;6.60;3.92;;;15.80;99.90;;;;;;5116408;28;20172;-67
2022/07/16 05:38:44;;;;;;;10.57;3.97;;;15.90;99.90;;;;;;5117875;28;20652;-67
2022/07/16 05:41:10;;;;;;;7.40;3.92;;;16.00;99.90;;;;;;5117739;28;20253;-67
2022/07/16 05:43:36;;;;;;;4.63;3.65;;;16.00;99.90;;;;;;5117759;28;20176;-67
2022/07/16 05:46:02;;;;;;;8.50;4.00;;;16.10;99.90;;;;;;5118390;27;20164;-67
2022/07/16 05:48:28;;;;;;;4.70;3.50;;;16.20;99.90;;;;;;5117610;28;20243;-68
2022/07/16 05:50:55;;;;;;;5.60;3.45;;;16.20;99.90;;;;;;5117487;28;20196;-67
2022/07/16 05:53:21;;;;;;;5.95;3.50;;;16.30;99.90;;;;;;5117653;27;20211;-67
2022/07/16 05:55:47;;;;;;;7.07;3.67;;;16.40;99.90;;;;;;5117729;28;20169;-67
2022/07/16 05:58:13;;;;;;;6.57;3.65;;;16.50;99.90;;;;;;5117586;28;20247;-67
2022/07/16 06:00:38;;;;;;;7.95;3.92;;;16.70;99.90;;;;;;5118041;28;20192;-67
2022/07/16 06:03:04;;;;;;;6.47;4.07;;;16.80;99.90;;;;;;5117785;28;20196;-67
2022/07/16 06:05:30;;;;;;;5.97;3.70;;;16.90;99.90;;;;;;5117515;28;20209;-67
2022/07/16 06:07:56;;;;;;;5.20;3.55;;;17.00;99.90;;;;;;5117534;27;20184;-67
2022/07/16 06:10:22;;;;;;;8.75;3.78;;;17.00;99.90;;;;;;5117276;28;20192;-67
2022/07/16 06:12:48;;;;;;;6.00;3.47;;;17.10;99.90;;;;;;5115909;28;20295;-67
2022/07/16 06:15:14;;;;;;;6.68;4.20;;;17.10;99.90;;;;;;5117282;28;20712;-67
2022/07/16 06:17:40;;;;;;;6.82;3.75;;;17.20;99.90;;;;;;5117556;28;20181;-67
2022/07/16 06:20:06;;;;;;;9.95;4.72;;;17.20;99.90;;;;;;5117013;28;20203;-67
2022/07/16 06:22:33;;;;;;;9.00;4.55;;;17.20;99.90;;;;;;5117730;28;20203;-67
2022/07/16 06:24:59;;;;;;;8.70;4.60;;;17.20;99.90;;;;;;5117140;28;20585;-67
2022/07/16 06:27:25;;;;;;;8.27;4.25;;;17.10;99.90;;;;;;5117594;28;20185;-67
2022/07/16 06:29:51;;;;;;;6.55;3.90;;;17.10;99.90;;;;;;5115849;28;20227;-68
2022/07/16 06:32:16;;;;;;;6.25;3.72;;;17.10;99.90;;;;;;5117125;27;20204;-68
2022/07/16 06:34:42;;;;;;;6.97;4.05;;;17.20;99.90;;;;;;5117003;28;20169;-66
2022/07/16 06:37:08;;;;;;;8.10;4.00;;;17.20;99.90;;;;;;5116905;28;20582;-70
2022/07/16 06:39:34;;;;;;;7.13;4.28;;;17.30;99.90;;;;;;5115948;28;20184;-71
2022/07/16 06:42:00;;;;;;;8.13;4.25;;;17.30;99.90;;;;;;5116738;27;20181;-67
2022/07/16 06:44:26;;;;;;;8.50;4.10;;;17.30;99.90;;;;;;5116676;28;20168;-67
2022/07/16 06:46:53;;;;;;;6.63;3.83;;;17.20;99.90;;;;;;5116994;28;20176;-67
2022/07/16 06:49:19;;;;;;;6.15;3.88;;;17.20;99.90;;;;;;5116642;28;20200;-67
2022/07/16 06:51:45;;;;;;;4.97;3.55;;;17.30;99.90;;;;;;5116199;28;20210;-67
2022/07/16 06:54:11;;;;;;;3.83;3.40;;;17.30;99.90;;;;;;5116761;28;20260;-67
2022/07/16 06:56:37;;;;;;;5.43;3.17;;;17.30;99.90;;;;;;5116552;28;20229;-67
2022/07/16 06:59:03;;;;;;;7.75;3.90;;;17.30;99.90;;;;;;5115205;28;20173;-67
2022/07/16 07:01:29;;;;;;;5.28;3.80;;;17.40;99.90;;;;;;5115653;28;20196;-67
2022/07/16 07:03:54;;;;;;;4.55;3.35;;;17.40;99.90;;;;;;5116646;28;20160;-67
2022/07/16 07:06:20;;;;;;;4.38;3.30;;;17.40;99.90;;;;;;5114842;28;20640;-67
2022/07/16 07:08:47;;;;;;;7.05;3.20;;;17.50;99.90;;;;;;5116350;28;20576;-67
2022/07/16 07:11:13;;;;;;;3.97;3.30;;;17.50;99.90;;;;;;5116073;28;20716;-67
2022/07/16 07:13:39;;;;;;;4.30;3.15;;;17.50;99.90;;;;;;5115022;28;20540;-66
2022/07/16 07:16:05;;;;;;;5.47;3.13;;;17.60;99.90;;;;;;5116514;28;20149;-67
2022/07/16 07:18:32;;;;;;;5.72;3.45;;;17.50;99.90;;;;;;5116086;28;20191;-67
2022/07/16 07:21:00;;;;;;;5.03;3.45;;;17.40;99.90;;;;;;5115691;28;20189;-66
2022/07/16 07:23:26;;;;;;;3.58;3.25;;;17.50;99.90;;;;;;5116120;28;20164;-73
2022/07/16 07:25:52;;;;;;;6.15;3.33;;;17.40;99.90;;;;;;5116788;28;20591;-67
2022/07/16 07:28:18;;;;;;;7.93;3.20;;;17.40;99.90;;;;;;5116002;28;20208;-68
2022/07/16 07:30:44;;;;;;;3.97;3.10;;;17.40;99.90;;;;;;5116470;28;20244;-69
2022/07/16 07:33:10;;;;;;;4.72;3.08;;;17.50;99.90;;;;;;5116468;28;20275;-69
2022/07/16 07:35:36;;;;;;;4.63;2.95;;;17.60;99.90;;;;;;5115488;28;20690;-69
2022/07/16 07:38:02;;;;;;;4.38;2.75;;;17.60;99.90;;;;;;5115913;28;20169;-68
2022/07/16 07:40:29;;;;;;;3.20;2.65;;;17.80;99.90;;;;;;5116042;28;20196;-69
2022/07/16 07:42:55;;;;;;;2.53;2.30;;;17.90;99.90;;;;;;5116876;27;20178;-68
2022/07/16 07:45:21;;;;;;;3.70;2.65;;;18.00;99.90;;;;;;5116454;28;20532;-69
2022/07/16 07:47:47;;;;;;;5.10;2.50;;;18.00;99.90;;;;;;5115855;28;20645;-69
2022/07/16 07:50:13;;;;;;;3.60;2.20;;;18.00;99.90;;;;;;5113891;28;20215;-69
2022/07/16 07:52:39;;;;;;;3.22;2.10;;;18.10;99.90;;;;;;5114128;28;20223;-69
2022/07/16 07:55:08;;;;;;;2.47;2.30;;;18.20;99.90;;;;;;5114127;28;20172;-69
2022/07/16 07:57:34;;;;;;;3.78;1.92;;;18.40;99.90;;;;;;5114155;28;20200;-69
2022/07/16 08:00:00;;;;;;;3.38;1.95;;;18.50;99.90;;;;;;5115203;28;20218;-69
2022/07/16 08:02:26;;;;;;;2.20;1.98;;;18.60;99.90;;;;;;5113985;28;20181;-69
2022/07/16 08:04:52;;;;;;;3.08;2.05;;;18.60;99.90;;;;;;5115056;28;20241;-69
2022/07/16 08:07:18;;;;;;;4.10;1.98;;;18.50;99.90;;;;;;5115386;28;20296;-69
2022/07/16 08:09:44;;;;;;;3.40;2.00;;;18.40;99.90;;;;;;5115014;28;20653;-68
2022/07/16 08:12:10;;;;;;;5.18;1.95;;;18.50;99.90;;;;;;5114097;28;20218;-71
2022/07/16 08:14:36;;;;;;;2.88;1.70;;;18.60;99.90;;;;;;5115444;28;20630;-69
2022/07/16 08:17:02;;;;;;;1.83;1.70;;;18.60;99.90;;;;;;5113687;28;20204;-69
2022/07/16 08:19:31;;;;;;;4.07;1.98;;;18.60;99.90;;;;;;5115012;28;20214;-69
2022/07/16 08:21:57;;;;;;;3.03;1.83;;;18.60;99.90;;;;;;5113330;28;20199;-69
2022/07/16 08:27:07;;;;;;;2.70;2.03;;;18.80;99.90;;;;;;5115026;28;20289;-69
2022/07/16 08:29:33;;;;;;;2.70;1.95;;;19.00;99.90;;;;;;5115226;28;20620;-69
2022/07/16 08:31:59;;;;;;;2.03;1.60;;;19.00;99.90;;;;;;5113288;28;20229;-70
2022/07/16 08:34:25;;;;;;;2.10;1.60;;;19.00;99.90;;;;;;5114804;28;20188;-68
2022/07/16 08:36:52;;;;;;;2.75;1.90;;;19.00;99.90;;;;;;5114266;28;20179;-69
2022/07/16 08:39:18;;;;;;;1.90;1.80;;;19.00;99.90;;;;;;5115094;28;20172;-69
2022/07/16 08:41:44;;;;;;;35.83;21.55;;;19.00;99.90;;;;;;5114631;28;20261;-69
2022/07/16 08:44:12;;;;;;;11.60;6.78;;;19.10;99.90;;;;;;5114715;28;20173;-69
2022/07/16 08:46:38;;;;;;;2.78;2.00;;;19.30;99.90;;;;;;5114747;27;20156;-69
2022/07/16 08:49:04;;;;;;;2.00;1.85;;;19.50;99.90;;;;;;5114386;28;20283;-69
2022/07/16 08:51:35;;;;;;;2.55;2.00;;;19.80;99.90;;;;;;5114057;28;20204;-69
2022/07/16 08:54:12;;;;;;;2.03;1.77;;;19.90;99.90;;;;;;5114266;28;20160;-69
2022/07/16 08:56:38;;;;;;;2.08;1.92;;;19.70;99.90;;;;;;5114587;28;20245;-69
2022/07/16 08:59:07;;;;;;;1.70;1.60;;;19.60;99.90;;;;;;5114629;28;20597;-70
2022/07/16 09:01:33;;;;;;;1.98;1.65;;;19.70;99.90;;;;;;5114210;28;20220;-69
2022/07/16 09:04:00;;;;;;;4.63;1.98;;;19.70;99.90;;;;;;5114372;28;20185;-69
2022/07/16 09:06:26;;;;;;;5.80;2.05;;;19.60;99.90;;;;;;5114206;28;20173;-69
2022/07/16 09:08:53;;;;;;;2.10;1.83;;;19.60;99.90;;;;;;5114435;28;20176;-69
2022/07/16 09:11:30;;;;;;;2.00;1.80;;;19.60;99.90;;;;;;5114247;28;20204;-69
2022/07/16 09:14:13;;;;;;;2.25;1.80;;;19.60;99.90;;;;;;5114340;28;20743;-69
2022/07/16 09:16:40;;;;;;;2.97;1.83;;;19.50;99.90;;;;;;5114364;28;20160;-69
2022/07/16 09:19:14;;;;;;;2.58;1.90;;;19.40;99.90;;;;;;5114230;28;20543;-68
2022/07/16 09:22:06;;;;;;;3.25;1.92;;;19.40;99.90;;;;;;5113988;28;20313;-68
2022/07/16 09:24:35;;;;;;;3.67;1.70;;;19.80;99.90;;;;;;5113932;28;20172;-69
2022/07/16 09:27:08;;;;;;;2.97;1.90;;;20.20;99.90;;;;;;5114086;28;20566;-68
2022/07/16 09:29:45;;;;;;;5.07;2.20;;;20.20;99.90;;;;;;5113878;28;20185;-68
2022/07/16 09:32:26;;;;;;;3.47;1.80;;;20.00;99.90;;;;;;5114101;28;20187;-68
2022/07/16 09:35:10;;;;;;;1.92;1.65;;;20.00;99.90;;;;;;5114207;28;20231;-68
2022/07/16 09:37:57;;;;;;;2.30;1.80;;;20.20;99.90;;;;;;5114249;28;20179;-68
2022/07/16 09:40:33;;;;;;;3.63;1.60;;;20.30;99.90;;;;;;5113883;28;20184;-68
2022/07/16 09:43:04;;;;;;;3.08;2.08;;;20.60;99.90;;;;;;5114363;28;20175;-68
2022/07/16 09:45:30;;;;;;;3.05;1.90;;;20.80;99.90;;;;;;5114303;28;20157;-69
2022/07/16 09:47:55;;;;;;;4.75;2.15;;;20.70;99.90;;;;;;5112831;28;20202;-69
2022/07/16 09:50:22;;;;;;;3.28;1.88;;;20.70;99.90;;;;;;5113666;28;20210;-68
2022/07/16 09:52:47;;;;;;;2.30;1.65;;;20.60;99.90;;;;;;5113989;28;20208;-68
2022/07/16 09:55:13;;;;;;;3.78;2.10;;;20.30;99.90;;;;;;5114340;28;20171;-69
2022/07/16 09:57:42;;;;;;;2.22;1.80;;;20.00;99.90;;;;;;5113820;28;20256;-69
2022/07/16 10:00:12;;;;;;;6.43;2.50;;;19.80;99.90;;;;;;5113598;28;20240;-69
2022/07/16 10:02:38;;;;;;;4.25;1.88;;;20.00;99.90;;;;;;5113741;28;20200;-70
2022/07/16 10:05:04;;;;;;;3.22;1.88;;;20.20;99.90;;;;;;5113980;28;20682;-70
2022/07/16 10:07:30;;;;;;;9.63;2.55;;;20.50;99.90;;;;;;5113818;28;20263;-70
2022/07/16 10:09:57;;;;;;;6.85;2.95;;;20.60;99.90;;;;;;5112397;28;20196;-69
2022/07/16 10:12:23;;;;;;;2.15;1.92;;;20.80;99.90;;;;;;5113473;28;20200;-69
2022/07/16 10:14:54;;;;;;;2.65;1.98;;;20.80;99.90;;;;;;5117005;28;20629;-69
2022/07/16 10:17:37;;;;;;;5.53;2.50;;;20.80;99.90;;;;;;5115982;28;20173;-69
2022/07/16 10:20:09;;;;;;;2.70;1.67;;;20.80;99.90;;;;;;5117109;28;20196;-69
2022/07/16 10:22:41;;;;;;;4.85;1.98;;;20.80;99.90;;;;;;5117600;28;20195;-69
2022/07/16 10:25:22;;;;;;;4.30;1.90;;;20.80;99.90;;;;;;5116187;28;20199;-69
2022/07/16 10:27:49;;;;;;;3.45;1.85;;;20.60;99.90;;;;;;5117448;28;20220;-69
2022/07/16 10:30:19;;;;;;;6.13;2.00;;;20.40;99.90;;;;;;5115939;28;20279;-70
2022/07/16 10:33:05;;;;;;;3.38;1.60;;;20.30;99.90;;;;;;5116156;28;20280;-70
2022/07/16 10:35:39;;;;;;;5.88;2.30;;;20.40;99.90;;;;;;5115537;28;20534;-70
2022/07/16 10:38:20;;;;;;;3.22;2.08;;;20.50;99.90;;;;;;5117612;28;20300;-70
2022/07/16 10:40:47;;;;;;;3.25;1.80;;;20.50;99.90;;;;;;5115534;28;20192;-70
2022/07/16 10:43:21;;;;;;;2.97;1.73;;;20.40;99.90;;;;;;5117302;28;20225;-70
2022/07/16 10:45:54;;;;;;;3.30;1.90;;;20.40;99.90;;;;;;5116384;28;20168;-70
2022/07/16 10:48:25;;;;;;;2.65;1.60;;;20.80;99.90;;;;;;5115492;28;20203;-70
2022/07/16 10:51:11;;;;;;;5.40;2.15;;;21.20;99.90;;;;;;5119195;28;20188;-70
2022/07/16 10:54:03;;;;;;;3.42;1.80;;;21.30;99.90;;;;;;5116095;28;20596;-69
2022/07/16 10:56:47;;;;;;;2.90;1.67;;;21.20;99.90;;;;;;5118858;28;20203;-70
2022/07/16 10:59:25;;;;;;;4.43;1.88;;;21.10;99.90;;;;;;5118307;28;20148;-70
2022/07/16 11:01:54;;;;;;;3.15;2.05;;;21.10;99.90;;;;;;5118009;28;20196;-70
2022/07/16 11:04:37;;;;;;;6.38;2.10;;;21.00;99.90;;;;;;5116701;28;20200;-70
2022/07/16 11:07:12;;;;;;;3.97;1.80;;;20.80;99.90;;;;;;5115359;28;20175;-71
2022/07/16 11:09:40;;;;;;;7.85;2.25;;;20.90;99.90;;;;;;5117334;28;20606;-70
2022/07/16 11:12:09;;;;;;;2.78;2.15;;;21.00;99.90;;;;;;5116257;28;20204;-71
2022/07/16 11:14:35;;;;;;;6.57;2.00;;;20.80;99.90;;;;;;5116671;28;20183;-70
2022/07/16 11:17:02;;;;;;;5.60;1.90;;;20.90;99.90;;;;;;5114998;28;20582;-70
2022/07/16 11:19:28;;;;;;;2.03;1.67;;;20.90;99.90;;;;;;5116197;28;20555;-70
2022/07/16 11:21:59;;;;;;;5.93;1.92;;;21.10;99.90;;;;;;5115796;28;20192;-71
2022/07/16 11:24:29;;;;;;;2.88;1.95;;;21.40;99.90;;;;;;5116600;28;20164;-70
2022/07/16 11:26:56;;;;;;;4.50;2.13;;;21.20;99.90;;;;;;5116703;28;20539;-71
2022/07/16 11:29:24;;;;;;;5.38;1.65;;;21.20;99.90;;;;;;5116108;28;20210;-70
2022/07/16 11:31:51;;;;;;;3.40;1.98;;;21.40;99.90;;;;;;5116003;28;20286;-69
2022/07/16 11:34:22;;;;;;;2.50;1.58;;;21.70;99.90;;;;;;5114579;28;20659;-70
2022/07/16 11:36:50;;;;;;;2.67;2.00;;;22.00;99.90;;;;;;5116282;28;20273;-70
2022/07/16 11:39:38;;;;;;;2.30;2.03;;;22.30;99.90;;;;;;5116428;28;20163;-71
2022/07/16 11:42:09;;;;;;;4.35;1.70;;;22.50;99.90;;;;;;5116544;28;20172;-68
2022/07/16 11:44:39;;;;;;;4.13;1.77;;;22.50;99.90;;;;;;5114778;28;20169;-70
2022/07/16 11:47:07;;;;;;;2.42;1.55;;;22.10;99.90;;;;;;5115891;28;20586;-70
2022/07/16 11:49:40;;;;;;;4.35;1.83;;;21.60;99.90;;;;;;5115611;28;20663;-70
2022/07/16 11:52:24;;;;;;;3.25;1.70;;;21.40;99.90;;;;;;5114113;28;20204;-70
2022/07/16 11:54:52;;;;;;;4.00;1.90;;;21.60;99.90;;;;;;5115878;28;20144;-71
2022/07/16 11:57:18;;;;;;;5.70;2.15;;;22.10;99.90;;;;;;5115543;28;20164;-71
2022/07/16 11:59:52;;;;;;;4.90;1.98;;;22.40;99.90;;;;;;5115993;28;20578;-70
2022/07/16 12:02:24;;;;;;;4.97;2.42;;;22.60;99.90;;;;;;5114886;28;20172;-70
2022/07/16 12:04:56;;;;;;;3.47;1.80;;;22.30;99.90;;;;;;5114253;28;20168;-68
2022/07/16 12:07:25;;;;;;;3.38;1.70;;;21.80;99.90;;;;;;5115046;28;20239;-68
2022/07/16 12:09:55;;;;;;;4.50;1.80;;;21.30;99.90;;;;;;5115241;28;20629;-68
2022/07/16 12:12:28;;;;;;;2.65;1.85;;;21.40;99.90;;;;;;5115045;28;20192;-68
2022/07/16 12:14:59;;;;;;;3.85;2.00;;;22.00;99.90;;;;;;5114006;28;20165;-68
2022/07/16 12:17:32;;;;;;;3.13;1.70;;;22.40;99.90;;;;;;5115127;28;20180;-68
2022/07/16 12:20:13;;;;;;;2.72;1.60;;;22.90;99.90;;;;;;5113990;28;20718;-68
2022/07/16 12:22:48;;;;;;;3.53;1.75;;;23.10;99.90;;;;;;5114899;28;20621;-68
2022/07/16 12:25:23;;;;;;;3.30;1.67;;;23.20;99.90;;;;;;5115106;28;20190;-68
2022/07/16 12:27:53;;;;;;;3.60;1.48;;;23.40;99.90;;;;;;5115456;28;20160;-68
2022/07/16 12:30:28;;;;;;;4.65;1.48;;;23.60;99.90;;;;;;5114095;28;20227;-68
2022/07/16 12:32:54;;;;;;;1.60;1.50;;;24.00;99.90;;;;;;5114884;28;20198;-68
2022/07/16 12:35:39;;;;;;;4.60;1.67;;;24.20;99.90;;;;;;5115194;27;20169;-68
2022/07/16 12:38:05;;;;;;;4.07;1.60;;;24.10;99.90;;;;;;5116394;28;20176;-68
2022/07/16 12:40:31;;;;;;;4.05;1.50;;;24.50;99.90;;;;;;5116050;28;20250;-68
2022/07/16 12:42:58;;;;;;;3.47;1.73;;;24.90;99.90;;;;;;5115473;28;20671;-68
2022/07/16 12:45:25;;;;;;;3.42;1.67;;;24.70;99.90;;;;;;5115269;28;20176;-68
2022/07/16 12:47:51;;;;;;;3.03;1.52;;;24.10;99.90;;;;;;5115105;28;20160;-68
2022/07/16 12:50:18;;;;;;;4.50;1.65;;;24.20;99.90;;;;;;5114630;28;20327;-68
2022/07/16 12:52:44;;;;;;;2.42;1.50;;;24.50;99.90;;;;;;5114263;28;20188;-68
2022/07/16 13:00:38;;;;;;;2.53;1.50;;;24.30;99.90;;;;;;5114576;28;20637;-72